createdAt,value
2023-05-23T00:01:17.598Z,71.21
2023-05-23T00:03:45.799Z,71.02
2023-05-23T00:06:15.271Z,71.46
2023-05-23T00:08:43.375Z,71.49
2023-05-23T00:11:11.461Z,72.80
2023-05-23T00:13:40.310Z,74.05
2023-05-23T00:16:09.762Z,73.08
2023-05-23T00:18:43.457Z,72.66
2023-05-23T00:21:11.449Z,72.17
2023-05-23T00:23:42.281Z,72.47
2023-05-23T00:26:11.059Z,72.09
2023-05-23T00:28:39.441Z,72.11
2023-05-23T00:31:07.721Z,72.70
2023-05-23T00:33:36.886Z,72.39
2023-05-23T00:36:06.803Z,71.93
2023-05-23T00:38:34.699Z,72.05
2023-05-23T00:41:03.642Z,71.21
2023-05-23T00:43:32.597Z,70.56
2023-05-23T00:46:01.958Z,70.37
2023-05-23T00:48:31.277Z,69.95
2023-05-23T00:50:59.694Z,69.20
2023-05-23T00:53:29.674Z,69.26
2023-05-23T00:55:58.132Z,69.74
2023-05-23T00:58:26.434Z,69.40
2023-05-23T01:00:56.226Z,69.01
2023-05-23T01:03:28.652Z,68.68
2023-05-23T01:05:57.664Z,68.91
2023-05-23T01:08:25.616Z,68.73
2023-05-23T01:10:55.147Z,68.88
2023-05-23T01:13:33.388Z,68.57
2023-05-23T01:16:07.527Z,68.52
2023-05-23T01:18:42.628Z,68.28
2023-05-23T01:21:14.146Z,68.45
2023-05-23T01:24:05.494Z,69.09
2023-05-23T01:26:48.267Z,69.52
2023-05-23T01:29:33.781Z,69.40
2023-05-23T01:32:04.859Z,69.20
2023-05-23T01:34:34.944Z,68.94
2023-05-23T01:37:03.065Z,69.29
2023-05-23T01:39:31.172Z,68.79
2023-05-23T01:41:59.620Z,68.49
2023-05-23T01:44:29.284Z,68.82
2023-05-23T01:46:58.833Z,68.72
2023-05-23T01:49:28.030Z,68.89
2023-05-23T01:51:56.486Z,68.31
2023-05-23T01:54:25.263Z,68.48
2023-05-23T01:56:53.543Z,68.75
2023-05-23T01:59:21.923Z,68.43
2023-05-23T02:01:51.960Z,68.25
2023-05-23T02:04:20.035Z,67.89
2023-05-23T02:06:47.902Z,68.69
2023-05-23T02:09:17.082Z,68.28
2023-05-23T02:11:45.074Z,68.04
2023-05-23T02:14:13.751Z,68.40
2023-05-23T02:16:42.153Z,68.60
2023-05-23T02:19:11.364Z,68.54
2023-05-23T02:21:39.648Z,68.56
2023-05-23T02:24:08.113Z,68.44
2023-05-23T02:26:36.206Z,68.21
2023-05-23T02:29:04.344Z,68.66
2023-05-23T02:31:32.733Z,69.16
2023-05-23T02:34:00.592Z,69.84
2023-05-23T02:36:29.988Z,69.98
2023-05-23T02:38:59.031Z,70.00
2023-05-23T02:41:27.144Z,70.21
2023-05-23T02:43:55.062Z,70.08
2023-05-23T02:46:23.699Z,70.92
2023-05-23T02:48:51.754Z,70.38
2023-05-23T02:51:19.762Z,70.95
2023-05-23T02:53:49.474Z,71.25
2023-05-23T02:56:19.043Z,71.44
2023-05-23T02:58:47.137Z,71.77
2023-05-23T03:01:15.405Z,71.92
2023-05-23T03:03:43.545Z,71.78
2023-05-23T03:06:14.726Z,72.19
2023-05-23T03:08:43.705Z,72.30
2023-05-23T03:11:12.993Z,72.27
2023-05-23T03:13:41.001Z,72.37
2023-05-23T03:16:09.407Z,72.57
2023-05-23T03:18:37.341Z,73.29
2023-05-23T03:21:05.765Z,72.42
2023-05-23T03:23:34.040Z,72.34
2023-05-23T03:26:02.039Z,72.51
2023-05-23T03:28:32.279Z,72.89
2023-05-23T03:31:00.867Z,73.26
2023-05-23T03:33:28.989Z,74.13
2023-05-23T03:35:57.701Z,73.54
2023-05-23T03:38:26.594Z,73.16
2023-05-23T03:40:54.550Z,72.97
2023-05-23T03:43:22.570Z,73.19
2023-05-23T03:45:52.447Z,73.46
2023-05-23T03:48:20.769Z,73.78
2023-05-23T03:50:48.884Z,73.42
2023-05-23T03:53:17.304Z,75.28
2023-05-23T03:55:45.552Z,74.33
2023-05-23T03:58:14.318Z,74.08
2023-05-23T04:00:43.183Z,74.46
2023-05-23T04:03:14.700Z,73.99
2023-05-23T04:05:43.944Z,74.20
2023-05-23T04:08:12.249Z,74.84
2023-05-23T04:10:40.573Z,74.25
2023-05-23T04:13:10.329Z,73.85
2023-05-23T04:15:39.773Z,73.65
2023-05-23T04:18:09.366Z,73.07
2023-05-23T04:20:39.636Z,71.54
2023-05-23T04:23:08.220Z,71.86
2023-05-23T04:25:36.831Z,71.18
2023-05-23T04:28:06.072Z,71.44
2023-05-23T04:30:35.064Z,71.30
2023-05-23T04:33:03.945Z,71.36
2023-05-23T04:35:34.758Z,70.57
2023-05-23T04:38:04.277Z,68.64
2023-05-23T04:40:32.936Z,67.38
2023-05-23T04:43:01.161Z,67.29
2023-05-23T04:45:29.827Z,67.58
2023-05-23T04:47:58.594Z,67.21
2023-05-23T04:50:28.741Z,65.93
2023-05-23T04:52:57.374Z,66.65
2023-05-23T04:55:27.030Z,66.60
2023-05-23T04:57:56.418Z,66.74
2023-05-23T05:00:25.395Z,67.30
2023-05-23T05:02:53.987Z,68.42
2023-05-23T05:05:22.436Z,68.05
2023-05-23T05:07:51.391Z,68.22
2023-05-23T05:10:19.807Z,68.52
2023-05-23T05:12:50.656Z,67.37
2023-05-23T05:15:21.530Z,67.86
2023-05-23T05:17:50.189Z,67.41
2023-05-23T05:20:18.671Z,67.17
2023-05-23T05:22:48.598Z,67.62
2023-05-23T05:25:16.961Z,65.67
2023-05-23T05:27:46.186Z,65.49
2023-05-23T05:30:17.229Z,64.46
2023-05-23T05:32:46.412Z,64.20
2023-05-23T05:35:15.471Z,64.46
2023-05-23T05:37:44.524Z,64.38
2023-05-23T05:40:13.639Z,62.96
2023-05-23T05:42:42.225Z,63.92
2023-05-23T05:45:12.135Z,62.87
2023-05-23T05:47:42.295Z,63.87
2023-05-23T05:50:11.734Z,63.35
2023-05-23T05:52:40.630Z,63.21
2023-05-23T05:55:12.100Z,63.97
2023-05-23T05:57:41.356Z,63.94
2023-05-23T06:00:13.766Z,64.32
2023-05-23T06:02:48.006Z,65.22
2023-05-23T06:05:17.370Z,65.58
2023-05-23T06:07:45.748Z,65.69
2023-05-23T06:10:14.939Z,66.69
2023-05-23T06:12:43.454Z,66.40
2023-05-23T06:15:13.709Z,65.49
2023-05-23T06:17:45.468Z,63.08
2023-05-23T06:20:14.331Z,62.32
2023-05-23T06:22:42.994Z,60.52
2023-05-23T06:25:12.703Z,58.46
2023-05-23T06:27:41.565Z,54.71
2023-05-23T06:30:11.275Z,51.88
2023-05-23T06:32:40.972Z,51.44
2023-05-23T06:35:11.426Z,49.31
2023-05-23T06:37:44.163Z,48.87
2023-05-23T06:40:14.821Z,43.81
2023-05-23T06:42:43.231Z,43.01
2023-05-23T06:45:15.758Z,40.13
2023-05-23T06:47:45.795Z,43.91
2023-05-23T06:50:20.434Z,43.58
2023-05-23T06:52:50.092Z,42.04
2023-05-23T06:55:19.722Z,40.47
2023-05-23T06:57:51.215Z,43.71
2023-05-23T07:00:20.251Z,46.46
2023-05-23T07:02:50.170Z,48.21
2023-05-23T07:05:20.660Z,49.12
2023-05-23T07:07:49.628Z,50.93
2023-05-23T07:10:17.921Z,51.61
2023-05-23T07:12:47.131Z,52.51
2023-05-23T07:15:16.556Z,52.78
2023-05-23T07:17:45.978Z,54.22
2023-05-23T07:20:15.437Z,55.30
2023-05-23T07:22:45.774Z,55.87
2023-05-23T07:25:14.564Z,54.83
2023-05-23T07:27:43.653Z,57.34
2023-05-23T07:30:12.767Z,56.49
2023-05-23T07:32:41.715Z,57.81
2023-05-23T07:35:11.355Z,56.97
2023-05-23T07:37:40.011Z,56.58
2023-05-23T07:40:11.187Z,57.88
2023-05-23T07:42:39.907Z,57.78
2023-05-23T07:45:09.570Z,57.78
2023-05-23T07:47:38.744Z,58.32
2023-05-23T07:50:08.413Z,57.38
2023-05-23T07:52:37.382Z,56.01
2023-05-23T07:55:08.182Z,55.92
2023-05-23T07:57:38.262Z,56.83
2023-05-23T08:00:07.887Z,55.82
2023-05-23T08:02:39.320Z,55.65
2023-05-23T08:05:08.899Z,52.78
2023-05-23T08:07:37.823Z,51.39
2023-05-23T08:10:08.058Z,49.54
2023-05-23T08:12:38.285Z,47.10
2023-05-23T08:15:08.838Z,46.02
2023-05-23T08:17:38.224Z,45.62
2023-05-23T08:20:10.640Z,45.33
2023-05-23T08:22:39.750Z,45.06
2023-05-23T08:25:08.962Z,44.98
2023-05-23T08:27:39.688Z,44.33
2023-05-23T08:30:10.101Z,43.31
2023-05-23T08:32:38.873Z,45.76
2023-05-23T08:35:09.417Z,44.06
2023-05-23T08:37:38.870Z,44.33
2023-05-23T08:40:15.951Z,44.16
2023-05-23T08:42:46.499Z,43.62
2023-05-23T08:45:16.169Z,44.28
2023-05-23T08:47:46.367Z,44.95
2023-05-23T08:50:18.585Z,42.29
2023-05-23T08:52:56.171Z,40.86
2023-05-23T08:55:27.907Z,41.13
2023-05-23T08:58:00.732Z,42.82
2023-05-23T09:00:30.725Z,43.68
2023-05-23T09:02:59.916Z,43.20
2023-05-23T09:05:29.085Z,44.00
2023-05-23T09:07:58.527Z,42.91
2023-05-23T09:10:30.155Z,39.34
2023-05-23T09:13:00.617Z,37.08
2023-05-23T09:15:29.400Z,37.71
2023-05-23T09:18:04.040Z,36.58
2023-05-23T09:20:33.205Z,36.78
2023-05-23T09:23:03.675Z,38.08
2023-05-23T09:25:33.071Z,38.28
2023-05-23T09:28:04.771Z,35.69
2023-05-23T09:30:37.032Z,32.71
2023-05-23T09:33:06.340Z,31.51
2023-05-23T09:35:35.136Z,29.74
2023-05-23T09:38:04.248Z,31.37
2023-05-23T09:40:34.550Z,28.33
2023-05-23T09:43:08.357Z,27.49
2023-05-23T09:45:37.157Z,28.87
2023-05-23T09:48:06.546Z,30.64
2023-05-23T09:50:35.433Z,31.00
2023-05-23T09:53:04.684Z,31.46
2023-05-23T09:55:34.504Z,31.66
2023-05-23T09:58:06.070Z,31.69
2023-05-23T10:00:36.867Z,30.68
2023-05-23T10:03:13.999Z,31.45
2023-05-23T10:05:48.420Z,34.31
2023-05-23T10:08:20.600Z,36.62
2023-05-23T10:11:36.662Z,38.66
2023-05-23T10:14:08.784Z,37.65
2023-05-23T10:16:49.999Z,37.30
2023-05-23T10:19:26.183Z,38.30
2023-05-23T10:22:01.101Z,37.13
2023-05-23T10:24:30.061Z,35.22
2023-05-23T10:27:00.015Z,35.16
2023-05-23T10:29:31.134Z,33.44
2023-05-23T10:32:03.011Z,32.99
2023-05-23T10:34:39.393Z,33.04
2023-05-23T10:37:09.361Z,32.23
2023-05-23T10:39:58.318Z,32.63
2023-05-23T10:42:37.273Z,33.25
2023-05-23T10:45:23.193Z,32.94
2023-05-23T10:47:54.574Z,29.87
2023-05-23T10:50:37.971Z,34.92
2023-05-23T10:53:08.467Z,39.65
2023-05-23T10:55:38.812Z,40.31
2023-05-23T10:58:17.529Z,42.02
2023-05-23T11:01:04.753Z,40.65
2023-05-23T11:03:39.640Z,40.76
2023-05-23T11:06:09.417Z,41.45
2023-05-23T11:08:48.824Z,40.31
2023-05-23T11:11:18.552Z,39.06
2023-05-23T11:14:02.911Z,39.11
2023-05-23T11:16:34.390Z,36.74
2023-05-23T11:19:28.638Z,35.70
2023-05-23T11:22:00.756Z,35.84
2023-05-23T11:24:51.711Z,36.84
2023-05-23T11:27:27.653Z,38.36
2023-05-23T11:30:04.263Z,38.74
2023-05-23T11:32:34.823Z,39.84
2023-05-23T11:35:06.104Z,41.05
2023-05-23T11:37:36.009Z,42.84
2023-05-23T11:40:28.941Z,43.39
2023-05-23T11:42:58.350Z,40.79
2023-05-23T11:45:27.293Z,39.50
2023-05-23T11:47:56.156Z,39.75
2023-05-23T11:50:28.534Z,38.15
2023-05-23T11:52:57.227Z,38.51
2023-05-23T11:55:25.950Z,38.35
2023-05-23T11:57:59.096Z,39.58
2023-05-23T12:00:27.509Z,40.49
2023-05-23T12:02:55.885Z,38.65
2023-05-23T12:05:26.400Z,40.07
2023-05-23T12:07:54.693Z,41.11
2023-05-23T12:10:30.032Z,41.29
2023-05-23T12:12:59.049Z,40.15
2023-05-23T12:15:28.582Z,38.83
2023-05-23T12:17:57.804Z,37.56
2023-05-23T12:20:27.844Z,37.28
2023-05-23T12:22:58.176Z,36.82
2023-05-23T12:25:26.671Z,36.65
2023-05-23T12:27:56.438Z,36.40
2023-05-23T12:30:25.278Z,37.44
2023-05-23T12:32:54.070Z,37.46
2023-05-23T12:35:22.708Z,37.65
2023-05-23T12:37:55.496Z,37.24
2023-05-23T12:40:24.291Z,37.13
2023-05-23T12:42:53.949Z,37.60
2023-05-23T12:45:27.088Z,36.04
2023-05-23T12:47:55.610Z,36.72
2023-05-23T12:50:24.030Z,37.56
2023-05-23T12:52:54.483Z,37.22
2023-05-23T12:55:23.204Z,36.64
2023-05-23T12:57:52.177Z,36.23
2023-05-23T13:00:22.432Z,38.41
2023-05-23T13:02:51.603Z,37.61
2023-05-23T13:05:21.186Z,39.89
2023-05-23T13:07:50.226Z,40.19
2023-05-23T13:10:20.812Z,39.00
2023-05-23T13:12:49.358Z,39.22
2023-05-23T13:15:18.422Z,39.07
2023-05-23T13:17:50.134Z,37.26
2023-05-23T13:20:19.570Z,38.89
2023-05-23T13:22:48.356Z,39.62
2023-05-23T13:25:17.145Z,40.38
2023-05-23T13:27:49.259Z,42.54
2023-05-23T13:30:18.264Z,44.47
2023-05-23T13:32:46.867Z,44.43
2023-05-23T13:35:17.167Z,44.86
2023-05-23T13:37:45.730Z,46.57
2023-05-23T13:40:18.777Z,46.63
2023-05-23T13:42:50.884Z,47.73
2023-05-23T13:45:20.598Z,47.63
2023-05-23T13:47:50.367Z,48.41
2023-05-23T13:50:19.351Z,48.61
2023-05-23T13:52:49.433Z,48.06
2023-05-23T13:55:18.876Z,48.30
2023-05-23T13:57:49.755Z,47.62
2023-05-23T14:00:18.796Z,47.56
2023-05-23T14:02:47.739Z,47.63
2023-05-23T14:05:17.265Z,46.95
2023-05-23T14:07:47.576Z,46.41
2023-05-23T14:10:17.754Z,46.83
2023-05-23T14:12:46.119Z,46.27
2023-05-23T14:15:16.073Z,46.34
2023-05-23T14:17:44.800Z,45.50
2023-05-23T14:20:14.075Z,46.76
2023-05-23T14:22:42.755Z,46.27
2023-05-23T14:25:12.142Z,45.24
2023-05-23T14:27:40.747Z,45.71
2023-05-23T14:30:11.169Z,44.97
2023-05-23T14:32:42.149Z,45.33
2023-05-23T14:35:12.533Z,46.75
2023-05-23T14:37:41.258Z,47.64
2023-05-23T14:40:11.859Z,46.77
2023-05-23T14:42:40.123Z,47.01
2023-05-23T14:45:09.042Z,47.05
2023-05-23T14:47:38.420Z,46.62
2023-05-23T14:50:09.724Z,48.05
2023-05-23T14:52:38.661Z,48.40
2023-05-23T14:55:08.067Z,49.87
2023-05-23T14:57:36.834Z,48.72
2023-05-23T15:00:06.042Z,48.23
2023-05-23T15:02:34.800Z,46.84
2023-05-23T15:05:03.939Z,46.97
2023-05-23T15:07:33.712Z,46.95
2023-05-23T15:10:02.017Z,48.10
2023-05-23T15:12:30.908Z,49.12
2023-05-23T15:15:03.912Z,49.96
2023-05-23T15:17:33.564Z,50.34
2023-05-23T15:20:04.469Z,49.42
2023-05-23T15:22:39.692Z,50.56
2023-05-23T15:25:09.732Z,51.65
2023-05-23T15:27:38.865Z,51.62
2023-05-23T15:30:08.625Z,53.17
2023-05-23T15:32:37.015Z,53.31
2023-05-23T15:35:06.659Z,53.55
2023-05-23T15:37:36.494Z,54.69
2023-05-23T15:40:05.147Z,54.71
2023-05-23T15:42:34.080Z,55.05
2023-05-23T15:45:02.502Z,55.22
2023-05-23T15:47:30.632Z,55.29
2023-05-23T15:49:59.204Z,55.30
2023-05-23T15:52:27.740Z,54.45
2023-05-23T15:54:58.291Z,54.60
2023-05-23T15:57:27.060Z,55.38
2023-05-23T15:59:55.402Z,54.66
2023-05-23T16:02:24.070Z,53.36
2023-05-23T16:04:53.089Z,54.22
2023-05-23T16:07:21.580Z,54.88
2023-05-23T16:09:49.774Z,58.42
2023-05-23T16:12:19.968Z,57.63
2023-05-23T16:14:48.745Z,58.91
2023-05-23T16:17:17.065Z,59.63
2023-05-23T16:19:45.876Z,60.04
2023-05-23T16:22:14.099Z,60.44
2023-05-23T16:24:42.362Z,60.30
2023-05-23T16:27:11.024Z,60.53
2023-05-23T16:29:40.886Z,60.58
2023-05-23T16:32:09.634Z,60.96
2023-05-23T16:34:38.494Z,60.09
2023-05-23T16:37:07.268Z,60.30
2023-05-23T16:39:35.669Z,60.62
2023-05-23T16:42:04.580Z,61.68
2023-05-23T16:44:33.129Z,61.73
2023-05-23T16:47:02.695Z,62.35
2023-05-23T16:49:31.742Z,61.54
2023-05-23T16:52:00.374Z,62.68
2023-05-23T16:54:28.924Z,62.82
2023-05-23T16:56:58.313Z,62.25
2023-05-23T16:59:26.828Z,64.04
2023-05-23T17:01:56.010Z,63.49
2023-05-23T17:04:26.875Z,63.37
2023-05-23T17:06:55.460Z,64.28
2023-05-23T17:09:24.635Z,64.83
2023-05-23T17:11:54.053Z,65.13
2023-05-23T17:14:22.430Z,64.12
2023-05-23T17:16:51.391Z,64.37
2023-05-23T17:19:20.845Z,64.65
2023-05-23T17:21:50.958Z,64.56
2023-05-23T17:24:19.390Z,64.88
2023-05-23T17:26:48.439Z,64.92
2023-05-23T17:29:17.479Z,64.61
2023-05-23T17:31:45.834Z,64.52
2023-05-23T17:34:17.806Z,65.68
2023-05-23T17:36:46.297Z,66.42
2023-05-23T17:39:16.515Z,65.67
2023-05-23T17:41:45.359Z,65.65
2023-05-23T17:44:13.891Z,66.56
2023-05-23T17:46:42.251Z,66.96
2023-05-23T17:49:11.154Z,65.86
2023-05-23T17:51:39.618Z,65.95
2023-05-23T17:54:08.136Z,66.10
2023-05-23T17:56:38.880Z,65.36
2023-05-23T17:59:07.519Z,64.00
2023-05-23T18:01:36.955Z,64.95
2023-05-23T18:04:05.893Z,65.06
2023-05-23T18:06:34.136Z,64.92
2023-05-23T18:09:03.126Z,65.57
2023-05-23T18:11:31.575Z,66.68
2023-05-23T18:14:01.629Z,66.81
2023-05-23T18:16:30.487Z,66.63
2023-05-23T18:18:59.853Z,66.20
2023-05-23T18:21:29.000Z,65.19
2023-05-23T18:23:58.260Z,64.87
2023-05-23T18:26:27.387Z,65.22
2023-05-23T18:28:56.443Z,65.08
2023-05-23T18:31:27.763Z,64.85
2023-05-23T18:33:56.916Z,65.31
2023-05-23T18:36:25.407Z,65.80
2023-05-23T18:38:54.545Z,65.92
2023-05-23T18:41:24.355Z,65.98
2023-05-23T18:43:53.749Z,65.58
2023-05-23T18:46:24.937Z,65.89
2023-05-23T18:48:56.094Z,67.11
2023-05-23T18:51:25.497Z,66.00
2023-05-23T18:53:54.082Z,67.16
2023-05-23T18:56:23.507Z,65.34
2023-05-23T18:58:52.660Z,66.38
2023-05-23T19:01:22.134Z,67.34
2023-05-23T19:03:51.126Z,67.12
2023-05-23T19:06:21.859Z,67.20
2023-05-23T19:08:51.171Z,66.81
2023-05-23T19:11:19.719Z,67.17
2023-05-23T19:13:48.838Z,67.30
2023-05-23T19:16:17.811Z,66.58
2023-05-23T19:18:47.767Z,66.35
2023-05-23T19:21:17.510Z,66.88
2023-05-23T19:23:47.815Z,66.42
2023-05-23T19:26:18.315Z,66.42
2023-05-23T19:28:47.730Z,66.62
2023-05-23T19:31:16.501Z,67.20
2023-05-23T19:33:45.089Z,66.71
2023-05-23T19:36:14.358Z,68.10
2023-05-23T19:38:42.749Z,67.78
2023-05-23T19:41:12.763Z,68.65
2023-05-23T19:43:41.791Z,68.86
2023-05-23T19:46:10.929Z,68.64
2023-05-23T19:48:39.982Z,68.67
2023-05-23T19:51:08.398Z,68.55
2023-05-23T19:53:36.813Z,70.55
2023-05-23T19:56:05.903Z,71.31
2023-05-23T19:58:36.504Z,71.21
2023-05-23T20:01:07.410Z,72.27
2023-05-23T20:03:36.696Z,72.44
2023-05-23T20:06:05.428Z,73.09
2023-05-23T20:08:34.699Z,73.59
2023-05-23T20:11:03.164Z,72.80
2023-05-23T20:13:32.153Z,72.30
2023-05-23T20:16:02.997Z,72.14
2023-05-23T20:18:32.321Z,72.10
2023-05-23T20:21:03.528Z,73.37
2023-05-23T20:23:34.389Z,74.90
2023-05-23T20:26:02.949Z,75.99
2023-05-23T20:28:31.108Z,76.52
2023-05-23T20:31:00.011Z,78.35
2023-05-23T20:33:30.294Z,77.72
2023-05-23T20:36:00.039Z,78.23
2023-05-23T20:38:29.131Z,78.85
2023-05-23T20:40:57.789Z,78.13
2023-05-23T20:43:26.865Z,78.07
2023-05-23T20:45:57.471Z,77.92
2023-05-23T20:48:26.672Z,77.86
2023-05-23T20:50:57.899Z,77.39
2023-05-23T20:53:26.871Z,76.82
2023-05-23T20:55:55.484Z,77.08
2023-05-23T20:58:24.230Z,77.50
2023-05-23T21:00:53.293Z,77.41
2023-05-23T21:03:22.126Z,77.76
2023-05-23T21:05:50.520Z,77.24
2023-05-23T21:08:21.701Z,76.64
2023-05-23T21:10:53.313Z,74.94
2023-05-23T21:13:23.215Z,74.55
2023-05-23T21:15:51.994Z,74.93
2023-05-23T21:18:20.258Z,73.60
2023-05-23T21:20:49.108Z,72.74
2023-05-23T21:23:17.379Z,72.16
2023-05-23T21:25:47.322Z,71.05
2023-05-23T21:28:16.177Z,69.59
2023-05-23T21:30:44.857Z,68.87
2023-05-23T21:33:13.732Z,67.66
2023-05-23T21:35:42.455Z,67.50
2023-05-23T21:38:11.269Z,67.79
2023-05-23T21:40:40.338Z,67.57
2023-05-23T21:43:10.216Z,67.45
2023-05-23T21:45:38.643Z,66.13
2023-05-23T21:48:07.751Z,66.19
2023-05-23T21:50:36.697Z,66.30
2023-05-23T21:53:04.976Z,66.36
2023-05-23T21:55:33.863Z,65.45
2023-05-23T21:58:02.190Z,65.93
2023-05-23T22:00:32.363Z,65.68
2023-05-23T22:03:00.743Z,65.05
2023-05-23T22:05:29.051Z,64.55
2023-05-23T22:07:57.953Z,64.39
2023-05-23T22:10:26.408Z,64.39
2023-05-23T22:12:54.763Z,63.74
2023-05-23T22:15:23.856Z,64.09
2023-05-23T22:17:53.748Z,63.68
2023-05-23T22:20:23.841Z,64.35
2023-05-23T22:22:52.544Z,63.99
2023-05-23T22:25:22.004Z,63.83
2023-05-23T22:27:50.991Z,63.83
2023-05-23T22:30:19.487Z,63.28
2023-05-23T22:32:48.417Z,63.87
2023-05-23T22:35:18.445Z,63.54
2023-05-23T22:37:47.192Z,63.21
2023-05-23T22:40:15.782Z,62.86
2023-05-23T22:42:44.184Z,62.82
2023-05-23T22:45:12.820Z,62.64
2023-05-23T22:47:42.268Z,62.86
2023-05-23T22:50:11.554Z,62.84
2023-05-23T22:52:41.150Z,62.68
2023-05-23T22:55:10.799Z,61.67
2023-05-23T22:57:39.095Z,61.63
2023-05-23T23:00:09.049Z,61.87
2023-05-23T23:02:37.971Z,61.44
2023-05-23T23:05:06.661Z,60.67
2023-05-23T23:07:34.996Z,60.80
2023-05-23T23:10:05.829Z,60.40
2023-05-23T23:12:34.574Z,60.25
2023-05-23T23:15:04.587Z,60.54
2023-05-23T23:17:33.973Z,60.00
2023-05-23T23:20:02.477Z,60.08
2023-05-23T23:22:31.604Z,60.65
2023-05-23T23:25:03.884Z,60.80
2023-05-23T23:27:34.275Z,59.74
2023-05-23T23:30:04.186Z,59.86
2023-05-23T23:32:34.320Z,59.75
2023-05-23T23:35:03.313Z,59.66
2023-05-23T23:37:33.036Z,59.84
2023-05-23T23:40:01.732Z,59.96
2023-05-23T23:42:31.188Z,59.77
2023-05-23T23:45:02.077Z,60.09
2023-05-23T23:47:31.880Z,60.16
2023-05-23T23:50:00.246Z,60.00
2023-05-23T23:52:30.616Z,60.24
2023-05-23T23:54:59.162Z,60.21
2023-05-23T23:57:27.684Z,59.65
2023-05-23T23:59:57.187Z,59.52
